Time;durP1;ratioP1;P1;durP2;ratioP2;P2;SDS_P1;SDS_P2;PMS_P1;PMS_P2;Temp;Humidity;BMP_temperature;BMP_pressure;BME280_temperature;BME280_humidity;BME280_pressure;Samples;Min_cycle;Max_cycle;Signal;HPM_P1;HPM_P2
2021/07/30 00:00:51;;;;;;;13.38;5.97;;;31.40;56.70;;;;;;5082227;28;20044;-57
2021/07/30 00:03:19;;;;;;;15.98;6.85;;;31.20;56.70;;;;;;5093653;28;20410;-58
2021/07/30 00:05:50;;;;;;;16.45;6.95;;;31.20;56.90;;;;;;5093273;28;20044;-58
2021/07/30 00:08:20;;;;;;;17.33;7.25;;;31.10;56.90;;;;;;5093274;28;20040;-58
2021/07/30 00:10:48;;;;;;;26.73;7.63;;;31.00;57.00;;;;;;5091869;28;20132;-57
2021/07/30 00:13:15;;;;;;;13.48;6.68;;;30.90;57.00;;;;;;5093303;28;20047;-58
2021/07/30 00:15:43;;;;;;;11.70;6.93;;;31.00;57.00;;;;;;5092451;28;20095;-58
2021/07/30 00:18:11;;;;;;;15.95;6.57;;;31.00;56.90;;;;;;5055483;28;20040;-58
2021/07/30 00:20:39;;;;;;;14.48;6.90;;;31.10;56.90;;;;;;5089787;28;20048;-58
2021/07/30 00:23:07;;;;;;;19.17;6.75;;;31.20;56.80;;;;;;5093325;28;20420;-58
2021/07/30 00:25:35;;;;;;;15.20;7.63;;;31.20;56.40;;;;;;5084738;28;20051;-58
2021/07/30 00:28:04;;;;;;;14.57;6.50;;;31.30;56.30;;;;;;5093261;28;20490;-58
2021/07/30 00:30:32;;;;;;;15.60;7.78;;;31.30;56.30;;;;;;5092923;28;20133;-58
2021/07/30 00:33:00;;;;;;;15.40;7.35;;;31.30;56.40;;;;;;5093064;28;20444;-58
2021/07/30 00:35:29;;;;;;;12.85;6.50;;;31.30;56.40;;;;;;5092886;28;20044;-58
2021/07/30 00:38:00;;;;;;;14.70;6.35;;;31.40;56.40;;;;;;5093408;28;20036;-58
2021/07/30 00:40:28;;;;;;;17.15;7.68;;;31.40;56.10;;;;;;5092764;28;20048;-58
2021/07/30 00:43:00;;;;;;;16.88;6.80;;;31.30;55.90;;;;;;5093029;28;20051;-59
2021/07/30 00:45:28;;;;;;;13.30;6.63;;;31.30;56.00;;;;;;5092723;28;20406;-59
2021/07/30 00:47:57;;;;;;;15.23;6.57;;;31.30;56.10;;;;;;5090272;28;20121;-58
2021/07/30 00:50:25;;;;;;;17.08;8.23;;;31.30;56.10;;;;;;5092945;28;20047;-58
2021/07/30 00:52:54;;;;;;;16.40;6.50;;;31.40;56.30;;;;;;5092174;28;20363;-58
2021/07/30 00:55:23;;;;;;;12.43;7.07;;;31.40;56.40;;;;;;5091568;28;20036;-58
2021/07/30 00:57:52;;;;;;;10.68;6.63;;;31.30;56.50;;;;;;5089044;28;20048;-59
2021/07/30 01:00:21;;;;;;;12.02;6.05;;;31.30;56.80;;;;;;5092512;28;20517;-58
2021/07/30 01:02:49;;;;;;;17.98;7.45;;;31.30;57.00;;;;;;5088954;28;20041;-58
2021/07/30 01:05:19;;;;;;;12.02;6.70;;;31.30;57.30;;;;;;5086519;28;20490;-58
2021/07/30 01:07:46;;;;;;;12.48;7.15;;;31.20;57.40;;;;;;5092946;28;20048;-58
2021/07/30 01:10:14;;;;;;;11.25;5.45;;;31.20;57.60;;;;;;5092644;28;20422;-58
2021/07/30 01:12:43;;;;;;;16.15;5.57;;;31.20;57.70;;;;;;5093377;28;20097;-58
2021/07/30 01:15:11;;;;;;;14.95;6.25;;;31.20;58.00;;;;;;5092389;28;20071;-58
2021/07/30 01:17:39;;;;;;;15.23;5.82;;;31.20;58.70;;;;;;5093100;28;20036;-58
2021/07/30 01:20:11;;;;;;;15.35;5.95;;;31.20;58.50;;;;;;5087960;28;20124;-58
2021/07/30 01:22:55;;;;;;;14.48;5.78;;;31.20;58.80;;;;;;5096306;28;20146;-58
2021/07/30 01:25:25;;;;;;;14.05;5.90;;;31.10;59.00;;;;;;5096054;28;20608;-58
2021/07/30 01:27:53;;;;;;;14.40;6.07;;;31.10;59.30;;;;;;5096619;28;20079;-59
2021/07/30 01:30:23;;;;;;;11.90;6.40;;;31.10;59.70;;;;;;5095057;28;20565;-58
2021/07/30 01:32:52;;;;;;;18.40;6.70;;;31.00;59.70;;;;;;5096349;28;20076;-58
2021/07/30 01:35:22;;;;;;;14.25;5.47;;;31.00;60.00;;;;;;5089412;28;20083;-58
2021/07/30 01:37:52;;;;;;;15.05;6.10;;;31.10;60.20;;;;;;5096249;28;20051;-58
2021/07/30 01:40:21;;;;;;;17.13;5.88;;;31.10;60.30;;;;;;5095446;28;20519;-58
2021/07/30 01:42:50;;;;;;;16.08;6.60;;;31.10;60.50;;;;;;5096489;28;20430;-58
2021/07/30 01:45:20;;;;;;;19.15;7.18;;;31.00;60.80;;;;;;5095701;28;20398;-58
2021/07/30 01:47:47;;;;;;;14.73;6.30;;;31.00;61.20;;;;;;5096088;28;20448;-59
2021/07/30 01:50:16;;;;;;;17.38;6.97;;;31.00;61.50;;;;;;5096013;28;20482;-59
2021/07/30 01:52:45;;;;;;;17.15;7.43;;;31.00;62.00;;;;;;5078027;28;20437;-57
2021/07/30 01:55:13;;;;;;;18.08;8.73;;;31.00;62.80;;;;;;5088854;28;20110;-58
2021/07/30 01:57:40;;;;;;;16.08;8.07;;;30.90;63.40;;;;;;5095887;28;20079;-58
2021/07/30 02:00:09;;;;;;;24.17;8.55;;;30.90;63.80;;;;;;5095731;28;20044;-59
2021/07/30 02:02:41;;;;;;;21.02;8.95;;;30.90;64.10;;;;;;5096055;28;20051;-59
2021/07/30 02:05:09;;;;;;;16.92;7.82;;;30.80;64.50;;;;;;5095441;28;20066;-58
2021/07/30 02:07:38;;;;;;;16.17;6.60;;;30.80;64.90;;;;;;5095809;28;20047;-58
2021/07/30 02:10:06;;;;;;;17.50;7.13;;;30.80;65.20;;;;;;5095386;28;20051;-58
2021/07/30 02:15:20;;;;;;;;;;;30.70;65.80;;;;;;5096112;28;20036;-58
2021/07/30 02:17:48;;;;;;;12.35;5.75;;;30.60;66.50;;;;;;5091636;28;20340;-59
2021/07/30 02:20:15;;;;;;;16.83;6.55;;;30.60;66.80;;;;;;5095025;28;20055;-58
2021/07/30 02:22:43;;;;;;;14.00;6.45;;;30.60;68.00;;;;;;5095626;28;20048;-58
2021/07/30 02:25:11;;;;;;;16.33;7.90;;;30.60;68.20;;;;;;5095185;28;20044;-59
2021/07/30 02:27:38;;;;;;;14.15;6.47;;;30.60;68.80;;;;;;5090256;28;20039;-58
2021/07/30 02:30:06;;;;;;;18.02;7.22;;;30.60;69.70;;;;;;5090670;28;20056;-58
2021/07/30 02:32:34;;;;;;;14.57;6.32;;;30.60;70.40;;;;;;5088772;28;20052;-59
2021/07/30 02:35:02;;;;;;;12.95;6.95;;;30.60;71.10;;;;;;5094817;28;20131;-58
2021/07/30 02:37:30;;;;;;;12.95;6.70;;;30.60;72.00;;;;;;5088597;28;20040;-59
2021/07/30 02:39:59;;;;;;;16.58;7.03;;;30.60;72.70;;;;;;5094552;28;20044;-59
2021/07/30 02:42:26;;;;;;;16.33;6.28;;;30.60;72.90;;;;;;5095115;28;20087;-59
2021/07/30 02:44:54;;;;;;;12.43;6.88;;;30.60;73.20;;;;;;5094376;28;20051;-58
2021/07/30 02:47:22;;;;;;;13.35;6.43;;;30.60;73.20;;;;;;5095379;28;20040;-59
2021/07/30 02:49:49;;;;;;;14.65;8.55;;;30.60;73.30;;;;;;5094658;28;20036;-59
2021/07/30 02:52:17;;;;;;;16.50;7.10;;;30.60;73.20;;;;;;5095404;28;20055;-59
2021/07/30 02:54:45;;;;;;;15.23;6.28;;;30.50;73.00;;;;;;5090087;28;20063;-58
2021/07/30 02:57:13;;;;;;;17.02;7.72;;;30.50;73.00;;;;;;5094505;28;20076;-58
2021/07/30 02:59:41;;;;;;;16.55;7.68;;;30.50;73.10;;;;;;5094460;28;20048;-58
2021/07/30 03:02:09;;;;;;;13.35;5.68;;;30.50;73.20;;;;;;5094581;28;20109;-58
2021/07/30 03:04:38;;;;;;;16.38;5.97;;;30.50;73.70;;;;;;5094211;28;20048;-59
2021/07/30 03:07:06;;;;;;;11.93;6.50;;;30.40;73.20;;;;;;5085533;28;20059;-58
2021/07/30 03:09:34;;;;;;;12.18;6.50;;;30.40;73.40;;;;;;5093400;28;20044;-58
2021/07/30 03:12:02;;;;;;;12.85;6.43;;;30.40;74.20;;;;;;5084655;28;20041;-58
2021/07/30 03:14:29;;;;;;;20.15;7.65;;;30.40;74.00;;;;;;5094083;28;20040;-58
2021/07/30 03:16:57;;;;;;;15.75;6.97;;;30.40;74.10;;;;;;5067416;28;20485;-58
2021/07/30 03:19:25;;;;;;;14.40;7.60;;;30.40;74.20;;;;;;5094206;28;20044;-58
2021/07/30 03:21:52;;;;;;;17.27;7.25;;;30.40;74.30;;;;;;5084344;28;20512;-58
2021/07/30 03:24:20;;;;;;;18.25;6.88;;;30.30;74.50;;;;;;5074535;28;20051;-57
2021/07/30 03:26:47;;;;;;;20.10;7.50;;;30.30;74.80;;;;;;5094242;28;20398;-57
2021/07/30 03:29:15;;;;;;;15.98;7.63;;;30.30;75.00;;;;;;5093931;28;20044;-58
2021/07/30 03:31:47;;;;;;;17.92;7.57;;;30.30;75.10;;;;;;5094381;28;20041;-58
2021/07/30 03:34:15;;;;;;;18.90;6.95;;;30.30;75.20;;;;;;5093398;28;20071;-58
2021/07/30 03:36:43;;;;;;;16.38;7.43;;;30.20;75.20;;;;;;5094126;28;20040;-58
2021/07/30 03:39:11;;;;;;;20.20;7.90;;;30.20;75.00;;;;;;5093507;28;20374;-57
2021/07/30 03:41:39;;;;;;;22.90;7.13;;;30.20;75.00;;;;;;5093073;28;20520;-58
2021/07/30 03:44:07;;;;;;;15.55;6.60;;;30.20;74.80;;;;;;5092044;28;20051;-57
2021/07/30 03:46:34;;;;;;;17.40;6.90;;;30.20;74.60;;;;;;5088004;28;20596;-58
2021/07/30 03:49:02;;;;;;;14.27;7.53;;;30.20;74.20;;;;;;5062639;28;20040;-58
2021/07/30 03:51:30;;;;;;;18.10;6.72;;;30.10;73.70;;;;;;5093008;28;20040;-58
2021/07/30 03:53:57;;;;;;;20.35;7.10;;;30.20;73.40;;;;;;5092711;28;20076;-58
2021/07/30 03:56:25;;;;;;;14.55;6.18;;;30.20;73.00;;;;;;5092767;28;20054;-57
2021/07/30 03:58:52;;;;;;;14.65;6.43;;;30.20;72.70;;;;;;5090761;28;20135;-57
2021/07/30 04:01:20;;;;;;;15.82;5.80;;;30.20;72.50;;;;;;5091477;28;20064;-58
2021/07/30 04:03:48;;;;;;;14.80;5.97;;;30.20;72.50;;;;;;5089908;28;20386;-58
2021/07/30 04:06:16;;;;;;;15.23;6.95;;;30.20;72.50;;;;;;5093086;28;20051;-58
2021/07/30 04:08:45;;;;;;;15.52;5.90;;;30.20;72.50;;;;;;5092018;28;20043;-58
2021/07/30 04:11:13;;;;;;;13.70;6.22;;;30.30;72.40;;;;;;5091880;28;20584;-58
2021/07/30 04:13:40;;;;;;;12.95;6.80;;;30.30;72.20;;;;;;5092602;28;20040;-58
2021/07/30 04:16:08;;;;;;;14.18;6.60;;;30.30;71.80;;;;;;5054241;28;20102;-58
2021/07/30 04:18:35;;;;;;;9.35;6.32;;;30.30;71.30;;;;;;5092163;28;20039;-58
2021/07/30 04:21:05;;;;;;;18.27;7.30;;;30.30;70.40;;;;;;5090994;28;20543;-58
2021/07/30 04:23:33;;;;;;;17.98;6.68;;;30.30;69.40;;;;;;5092000;28;20040;-58
2021/07/30 04:26:01;;;;;;;15.50;5.57;;;30.40;68.50;;;;;;5092348;28;20135;-58
2021/07/30 04:28:28;;;;;;;16.88;5.45;;;30.40;67.40;;;;;;5092158;28;20052;-58
2021/07/30 04:31:02;;;;;;;20.35;7.47;;;30.50;66.40;;;;;;5091278;28;20044;-58
2021/07/30 04:33:31;;;;;;;23.25;5.90;;;30.60;65.80;;;;;;5074980;28;20062;-58
2021/07/30 04:35:58;;;;;;;10.98;5.53;;;30.70;65.10;;;;;;5092329;28;20516;-59
2021/07/30 04:38:26;;;;;;;15.30;5.82;;;30.80;64.90;;;;;;5092852;28;20036;-58
2021/07/30 04:40:54;;;;;;;11.32;5.97;;;30.90;64.40;;;;;;5090475;28;20051;-58
2021/07/30 04:43:21;;;;;;;13.65;5.88;;;31.00;64.10;;;;;;5088368;28;20127;-58
2021/07/30 04:45:49;;;;;;;21.63;6.00;;;31.10;63.90;;;;;;5090204;28;20048;-58
2021/07/30 04:48:17;;;;;;;14.68;5.30;;;31.20;64.00;;;;;;5092347;28;20115;-58
2021/07/30 04:50:44;;;;;;;15.50;6.47;;;31.30;64.20;;;;;;5083127;28;20051;-58
2021/07/30 04:53:12;;;;;;;17.98;7.15;;;31.40;64.80;;;;;;5081855;28;20055;-59
2021/07/30 04:55:40;;;;;;;12.68;5.72;;;31.40;65.30;;;;;;5085999;28;20054;-58
2021/07/30 04:58:07;;;;;;;16.65;7.57;;;31.60;65.60;;;;;;5096994;28;20063;-58
2021/07/30 05:00:35;;;;;;;14.73;6.00;;;31.60;65.60;;;;;;5066317;28;20040;-58
2021/07/30 05:03:03;;;;;;;11.30;6.68;;;31.80;65.60;;;;;;5068021;28;20401;-58
2021/07/30 05:05:30;;;;;;;12.20;5.55;;;31.80;65.00;;;;;;5094812;28;20559;-58
2021/07/30 05:07:58;;;;;;;17.67;6.47;;;31.90;65.00;;;;;;5092550;28;20044;-59
2021/07/30 05:10:26;;;;;;;13.45;7.10;;;32.00;64.70;;;;;;5088981;28;20048;-58
2021/07/30 05:12:53;;;;;;;17.35;8.65;;;32.20;63.90;;;;;;5095380;28;20050;-58
2021/07/30 05:15:21;;;;;;;20.77;11.10;;;32.20;62.90;;;;;;5089104;28;20037;-58
2021/07/30 05:17:49;;;;;;;27.77;15.35;;;32.30;61.70;;;;;;5096844;28;20201;-58
2021/07/30 05:20:16;;;;;;;27.70;16.00;;;32.50;60.80;;;;;;5095742;28;20040;-58
2021/07/30 05:22:44;;;;;;;28.52;16.08;;;32.60;60.50;;;;;;5096398;28;20101;-59
2021/07/30 05:25:12;;;;;;;31.90;13.32;;;32.80;60.10;;;;;;5095503;28;20494;-58
2021/07/30 05:27:40;;;;;;;18.42;11.30;;;32.90;59.40;;;;;;5096538;28;20101;-58
2021/07/30 05:30:08;;;;;;;22.00;10.90;;;33.10;59.40;;;;;;5094996;28;20044;-58
2021/07/30 05:32:36;;;;;;;17.40;8.15;;;33.20;59.50;;;;;;5095345;28;20048;-58
2021/07/30 05:35:03;;;;;;;15.63;8.32;;;33.30;59.30;;;;;;5085116;28;20074;-58
2021/07/30 05:37:31;;;;;;;16.10;7.25;;;33.50;59.30;;;;;;5092875;28;20040;-57
2021/07/30 05:39:59;;;;;;;17.95;5.85;;;33.60;59.20;;;;;;5095389;28;20101;-58
2021/07/30 05:42:26;;;;;;;15.80;6.60;;;33.80;59.10;;;;;;5088242;28;20066;-58
2021/07/30 05:44:54;;;;;;;17.35;6.50;;;33.90;58.90;;;;;;5094848;28;20562;-57
2021/07/30 05:47:21;;;;;;;10.98;5.82;;;34.00;58.80;;;;;;5064767;28;20050;-58
2021/07/30 05:49:49;;;;;;;17.17;6.30;;;34.10;58.50;;;;;;5070474;28;20112;-58
2021/07/30 05:52:16;;;;;;;13.30;6.35;;;34.20;58.40;;;;;;5094289;28;20382;-59
2021/07/30 05:54:44;;;;;;;15.00;7.38;;;34.30;58.80;;;;;;5095398;28;20068;-58
2021/07/30 05:57:12;;;;;;;21.95;7.63;;;34.50;58.60;;;;;;5087851;28;20052;-57
2021/07/30 05:59:39;;;;;;;13.80;6.45;;;34.60;58.50;;;;;;5079214;28;20513;-58
2021/07/30 06:02:07;;;;;;;17.05;7.18;;;34.70;58.40;;;;;;5086116;28;20075;-58
2021/07/30 06:04:35;;;;;;;24.52;6.43;;;34.80;58.30;;;;;;5092976;28;20485;-57
2021/07/30 06:07:02;;;;;;;16.55;6.55;;;34.80;58.00;;;;;;5088305;28;20151;-59
2021/07/30 06:09:30;;;;;;;14.10;7.13;;;35.00;57.90;;;;;;5095189;28;20044;-58
2021/07/30 06:11:58;;;;;;;15.07;6.40;;;35.10;58.00;;;;;;5081836;28;20094;-58
2021/07/30 06:14:26;;;;;;;13.38;7.28;;;35.20;58.10;;;;;;5094887;28;20039;-59
2021/07/30 06:16:53;;;;;;;12.80;5.97;;;35.30;58.10;;;;;;5093288;28;20089;-58
2021/07/30 06:19:21;;;;;;;13.73;6.45;;;35.30;58.20;;;;;;5089699;28;20036;-59
2021/07/30 06:21:49;;;;;;;14.75;6.53;;;35.40;58.30;;;;;;5094664;28;20569;-58
2021/07/30 06:24:17;;;;;;;13.00;6.13;;;35.50;58.40;;;;;;5080529;28;20138;-59
2021/07/30 06:26:44;;;;;;;15.18;6.90;;;35.50;58.80;;;;;;5094976;28;20497;-59
2021/07/30 06:29:12;;;;;;;18.00;7.20;;;35.70;58.50;;;;;;5094449;28;20035;-58
2021/07/30 06:31:41;;;;;;;16.10;6.55;;;35.80;58.50;;;;;;5092568;28;20043;-59
2021/07/30 06:34:09;;;;;;;14.85;7.13;;;35.80;57.90;;;;;;5068405;28;20102;-59
2021/07/30 06:36:37;;;;;;;16.20;6.38;;;35.90;57.60;;;;;;5071980;28;20044;-59
2021/07/30 06:39:05;;;;;;;13.60;6.43;;;36.00;57.30;;;;;;5085557;28;20047;-58
2021/07/30 06:41:35;;;;;;;15.38;6.43;;;36.20;55.90;;;;;;5087997;28;20043;-59
2021/07/30 06:44:03;;;;;;;10.02;5.97;;;36.30;55.30;;;;;;5085655;28;20040;-59
2021/07/30 06:46:33;;;;;;;15.20;6.78;;;36.30;55.20;;;;;;5090233;28;20505;-59
2021/07/30 06:49:00;;;;;;;13.35;5.68;;;36.50;54.50;;;;;;5087280;28;20461;-59
2021/07/30 06:51:28;;;;;;;12.23;5.97;;;36.50;54.00;;;;;;5092983;28;20036;-59
2021/07/30 06:53:56;;;;;;;13.93;6.32;;;36.70;54.10;;;;;;5087901;28;20072;-58
2021/07/30 06:56:23;;;;;;;17.48;6.32;;;36.80;53.30;;;;;;5084578;28;20131;-58
2021/07/30 06:58:51;;;;;;;14.02;5.82;;;36.90;53.30;;;;;;5091555;28;20051;-58
2021/07/30 07:01:19;;;;;;;14.80;6.00;;;37.00;53.10;;;;;;5089896;28;20071;-59
2021/07/30 07:03:49;;;;;;;14.75;5.63;;;37.00;52.00;;;;;;5088216;28;20072;-58
2021/07/30 07:06:17;;;;;;;13.90;5.55;;;37.20;52.00;;;;;;5089490;28;20502;-59
2021/07/30 07:08:45;;;;;;;14.35;5.78;;;37.20;51.80;;;;;;5083563;28;20072;-58
2021/07/30 07:11:13;;;;;;;15.73;6.82;;;37.30;51.70;;;;;;5089481;28;20050;-59
2021/07/30 07:13:44;;;;;;;11.07;5.55;;;37.20;51.00;;;;;;5090348;28;20048;-58
2021/07/30 07:16:12;;;;;;;15.95;5.90;;;37.30;51.20;;;;;;5089218;28;20028;-59
2021/07/30 07:18:39;;;;;;;14.43;6.05;;;37.30;50.70;;;;;;5090939;28;20044;-58
2021/07/30 07:21:08;;;;;;;14.02;5.25;;;37.40;50.90;;;;;;5075578;28;21633;-58
2021/07/30 07:23:37;;;;;;;12.32;4.47;;;37.50;51.20;;;;;;5090776;28;20040;-57
2021/07/30 07:26:05;;;;;;;13.15;5.47;;;37.50;50.20;;;;;;5090410;28;20044;-59
2021/07/30 07:28:32;;;;;;;14.45;6.53;;;37.50;49.50;;;;;;5092875;28;20032;-59
2021/07/30 07:31:00;;;;;;;12.57;5.55;;;37.50;50.00;;;;;;5084014;28;20501;-59
2021/07/30 07:33:28;;;;;;;10.13;5.25;;;37.60;50.00;;;;;;5076697;28;20044;-59
2021/07/30 07:35:55;;;;;;;12.32;5.15;;;37.70;50.10;;;;;;5092346;28;20123;-59
2021/07/30 07:38:23;;;;;;;12.65;5.20;;;37.70;48.80;;;;;;5094030;28;20048;-59
2021/07/30 07:40:51;;;;;;;9.63;4.60;;;37.70;47.90;;;;;;5082293;28;20051;-59
2021/07/30 07:43:19;;;;;;;13.32;4.82;;;37.70;48.70;;;;;;5092962;28;20389;-59
2021/07/30 07:45:46;;;;;;;12.48;5.47;;;37.70;47.40;;;;;;5091274;28;20097;-58
2021/07/30 07:48:14;;;;;;;12.43;5.45;;;37.80;48.40;;;;;;5093268;28;20040;-59
2021/07/30 07:50:42;;;;;;;11.50;4.03;;;37.70;47.40;;;;;;5092332;28;20117;-58
2021/07/30 07:53:17;;;;;;;13.00;4.43;;;37.70;47.60;;;;;;5081511;28;20040;-59
2021/07/30 07:55:45;;;;;;;13.70;6.13;;;37.90;48.40;;;;;;5092970;28;20055;-59
2021/07/30 07:58:13;;;;;;;16.23;6.30;;;38.00;48.10;;;;;;5080405;28;20503;-59
2021/07/30 08:00:41;;;;;;;17.20;5.75;;;38.00;47.20;;;;;;5072591;28;20071;-58
2021/07/30 08:03:09;;;;;;;14.45;5.35;;;38.00;47.70;;;;;;5089390;28;20459;-59
2021/07/30 08:05:54;;;;;;;13.45;5.68;;;38.10;47.90;;;;;;5079566;28;20052;-59
2021/07/30 08:08:22;;;;;;;;;;;38.10;47.90;;;;;;5072333;28;20041;-59
2021/07/30 08:10:49;;;;;;;17.60;6.60;;;38.30;48.40;;;;;;5090086;28;19956;-58
2021/07/30 08:13:17;;;;;;;14.27;4.65;;;38.40;48.30;;;;;;5093776;28;20433;-59
2021/07/30 08:15:45;;;;;;;14.45;5.05;;;38.40;48.00;;;;;;5092936;28;20414;-59
2021/07/30 08:18:12;;;;;;;10.98;5.20;;;38.50;47.90;;;;;;5093627;28;20051;-59
2021/07/30 08:20:40;;;;;;;20.63;5.75;;;38.50;48.30;;;;;;5093047;28;20051;-59
2021/07/30 08:23:08;;;;;;;15.32;4.75;;;38.60;48.40;;;;;;5093417;28;20040;-59
2021/07/30 08:25:35;;;;;;;16.30;6.50;;;38.60;48.20;;;;;;5092681;28;20044;-59
2021/07/30 08:28:04;;;;;;;12.55;5.70;;;38.70;48.00;;;;;;5074410;28;20126;-59
2021/07/30 08:30:31;;;;;;;17.52;5.57;;;38.70;48.20;;;;;;5092587;28;20067;-59
2021/07/30 08:32:59;;;;;;;11.77;4.97;;;38.70;47.60;;;;;;5093041;28;20131;-59
2021/07/30 08:35:27;;;;;;;14.65;5.68;;;38.70;47.40;;;;;;5093017;28;20109;-59
2021/07/30 08:37:54;;;;;;;13.63;6.18;;;38.80;47.20;;;;;;5073048;28;20603;-59
2021/07/30 08:40:24;;;;;;;12.45;4.47;;;38.80;46.60;;;;;;5092694;28;20036;-59
2021/07/30 08:42:52;;;;;;;15.10;5.50;;;38.90;46.50;;;;;;5092899;28;20040;-59
2021/07/30 08:45:20;;;;;;;14.88;5.00;;;39.00;46.20;;;;;;5092464;28;20043;-58
2021/07/30 08:47:50;;;;;;;16.63;5.45;;;39.00;45.40;;;;;;5088650;28;20048;-59
2021/07/30 08:50:18;;;;;;;15.25;6.40;;;39.00;45.20;;;;;;5086357;28;20139;-58
2021/07/30 08:53:09;;;;;;;14.10;5.85;;;39.00;45.10;;;;;;4998271;28;20054;-58
2021/07/30 08:55:55;;;;;;;17.00;5.80;;;39.10;45.30;;;;;;5022124;28;20061;-59
2021/07/30 08:58:24;;;;;;;13.23;5.68;;;39.20;45.60;;;;;;5010958;28;20057;-59
2021/07/30 09:00:52;;;;;;;12.95;4.50;;;39.30;45.30;;;;;;5021839;28;20136;-58
2021/07/30 09:03:20;;;;;;;10.65;4.68;;;39.30;45.20;;;;;;4978716;28;20108;-58
2021/07/30 09:05:48;;;;;;;16.63;5.00;;;39.40;45.20;;;;;;5021988;28;20512;-59
2021/07/30 09:08:24;;;;;;;16.80;5.90;;;39.50;45.00;;;;;;4994832;28;20049;-59
2021/07/30 09:10:54;;;;;;;13.30;4.95;;;39.50;45.00;;;;;;5021460;28;20094;-59
2021/07/30 09:13:29;;;;;;;17.38;5.28;;;39.50;44.20;;;;;;5011017;28;20089;-58
2021/07/30 09:15:59;;;;;;;16.10;5.03;;;39.50;44.90;;;;;;5021424;28;20091;-59
2021/07/30 09:18:29;;;;;;;14.48;4.68;;;39.50;44.40;;;;;;4995091;28;20421;-58
2021/07/30 09:21:18;;;;;;;17.90;5.85;;;39.50;44.40;;;;;;5021653;28;20041;-58
2021/07/30 09:23:57;;;;;;;15.88;5.75;;;39.50;44.60;;;;;;5012406;28;20469;-58
2021/07/30 09:26:50;;;;;;;13.07;5.15;;;39.60;45.00;;;;;;5091959;28;20086;-58
2021/07/30 09:29:21;;;;;;;17.90;5.95;;;39.20;44.10;;;;;;5090019;28;20042;-59
2021/07/30 09:32:00;;;;;;;15.63;5.43;;;39.20;44.20;;;;;;5048722;28;20131;-58
2021/07/30 09:34:40;;;;;;;16.23;5.88;;;39.20;44.70;;;;;;5092792;28;20036;-58
2021/07/30 09:37:28;;;;;;;13.57;5.72;;;39.20;44.50;;;;;;5084052;28;20044;-58
2021/07/30 09:39:58;;;;;;;13.93;5.40;;;39.20;44.50;;;;;;5071267;28;20040;-58
2021/07/30 09:42:46;;;;;;;16.25;5.88;;;39.10;44.30;;;;;;5035732;28;20056;-58
2021/07/30 09:45:14;;;;;;;22.92;5.88;;;39.20;44.50;;;;;;5040638;28;20504;-58
2021/07/30 09:47:54;;;;;;;16.70;5.25;;;39.30;44.70;;;;;;5035704;28;20130;-59
2021/07/30 09:50:22;;;;;;;18.95;5.65;;;39.20;44.60;;;;;;5043905;28;20041;-58
2021/07/30 09:52:55;;;;;;;13.05;6.03;;;39.10;44.60;;;;;;5018994;28;20093;-58
2021/07/30 09:55:24;;;;;;;16.52;6.05;;;38.70;44.20;;;;;;5041959;28;20052;-58
2021/07/30 09:57:55;;;;;;;9.23;4.47;;;38.50;44.10;;;;;;5010172;28;20045;-59
2021/07/30 10:00:24;;;;;;;13.43;5.22;;;38.70;44.30;;;;;;5024112;28;20045;-59
2021/07/30 10:02:52;;;;;;;15.90;5.43;;;38.80;44.90;;;;;;5034669;28;20057;-58
2021/07/30 10:05:20;;;;;;;18.40;6.70;;;39.00;44.90;;;;;;5038797;28;20047;-58
2021/07/30 10:07:48;;;;;;;15.90;6.65;;;39.10;45.10;;;;;;5034875;28;20115;-59
2021/07/30 10:10:28;;;;;;;22.30;6.25;;;39.00;44.40;;;;;;5039602;28;20041;-59
2021/07/30 10:12:59;;;;;;;20.13;6.65;;;39.10;44.80;;;;;;5035170;28;20049;-58
2021/07/30 10:15:28;;;;;;;22.13;5.55;;;39.20;44.90;;;;;;5042162;28;20075;-58
2021/07/30 10:17:56;;;;;;;18.55;5.65;;;39.30;44.60;;;;;;5035128;28;20049;-59
2021/07/30 10:20:26;;;;;;;19.83;6.90;;;39.20;44.70;;;;;;5069338;28;20048;-59
2021/07/30 10:23:04;;;;;;;13.77;6.68;;;39.20;45.30;;;;;;5095952;28;20038;-58
2021/07/30 10:25:48;;;;;;;22.40;6.85;;;39.00;45.40;;;;;;5095155;28;20050;-59
2021/07/30 10:28:25;;;;;;;11.95;5.85;;;38.80;45.80;;;;;;5075319;28;20049;-59
2021/07/30 10:30:55;;;;;;;13.70;5.70;;;38.60;45.70;;;;;;5081115;28;20040;-59
2021/07/30 10:33:43;;;;;;;16.05;6.03;;;38.70;46.00;;;;;;5096051;28;20075;-59
2021/07/30 10:36:15;;;;;;;11.75;5.30;;;38.90;46.50;;;;;;5081472;28;20060;-59
2021/07/30 10:39:03;;;;;;;9.90;5.30;;;39.00;46.80;;;;;;5095172;28;20047;-58
2021/07/30 10:41:30;;;;;;;12.85;5.57;;;39.00;47.00;;;;;;5095112;28;20052;-58
2021/07/30 10:44:01;;;;;;;16.10;6.40;;;39.00;47.00;;;;;;5094851;28;20410;-58
2021/07/30 10:46:29;;;;;;;13.75;6.60;;;38.90;46.40;;;;;;5084291;28;20123;-59
2021/07/30 10:48:57;;;;;;;14.48;5.88;;;38.90;46.40;;;;;;5094381;28;20086;-58
2021/07/30 10:51:30;;;;;;;15.77;5.93;;;38.90;46.30;;;;;;5095465;28;20429;-59
2021/07/30 10:54:03;;;;;;;10.90;6.63;;;38.70;46.00;;;;;;5094575;28;20094;-59
2021/07/30 10:56:31;;;;;;;10.18;4.85;;;38.70;46.10;;;;;;5094739;28;20105;-59
2021/07/30 10:58:58;;;;;;;15.70;6.47;;;38.60;46.10;;;;;;5094325;28;20054;-57
2021/07/30 11:01:27;;;;;;;15.10;5.20;;;38.60;46.00;;;;;;5095001;28;20459;-58
2021/07/30 11:04:08;;;;;;;11.10;5.55;;;38.60;46.20;;;;;;5092906;28;20094;-57
2021/07/30 11:06:42;;;;;;;13.73;5.57;;;38.50;45.90;;;;;;5090671;28;20046;-58
2021/07/30 11:09:18;;;;;;;15.45;5.35;;;38.40;45.80;;;;;;5094571;28;20046;-58
2021/07/30 11:11:52;;;;;;;17.33;6.10;;;38.30;46.00;;;;;;5084298;28;20157;-58
2021/07/30 11:14:37;;;;;;;15.32;6.10;;;38.30;45.90;;;;;;5093706;28;20036;-58
2021/07/30 11:17:05;;;;;;;8.63;4.20;;;38.40;46.20;;;;;;5084006;28;20066;-59
2021/07/30 11:19:38;;;;;;;11.10;6.35;;;38.20;46.20;;;;;;5089998;28;20036;-58
2021/07/30 11:22:12;;;;;;;12.88;5.20;;;38.10;46.20;;;;;;5085104;28;20048;-58
2021/07/30 11:24:44;;;;;;;18.73;6.78;;;38.00;46.50;;;;;;5090057;28;20446;-58
2021/07/30 11:27:14;;;;;;;15.27;6.63;;;37.90;46.70;;;;;;5085756;28;20050;-58
2021/07/30 11:29:43;;;;;;;13.82;5.43;;;37.90;46.70;;;;;;5089348;28;20506;-58
2021/07/30 11:32:14;;;;;;;10.18;4.65;;;38.00;46.50;;;;;;5094441;28;20051;-58
2021/07/30 11:34:45;;;;;;;13.18;5.70;;;38.10;46.30;;;;;;5093815;28;20048;-58
2021/07/30 11:37:19;;;;;;;14.35;7.95;;;38.20;46.10;;;;;;5094265;28;20051;-58
2021/07/30 11:39:49;;;;;;;15.65;8.75;;;38.30;46.50;;;;;;5093834;28;20065;-58
2021/07/30 11:42:34;;;;;;;14.23;7.45;;;38.30;46.20;;;;;;5085685;28;20393;-58
2021/07/30 11:45:07;;;;;;;11.23;5.45;;;38.50;46.00;;;;;;5089437;28;20070;-58
2021/07/30 11:47:37;;;;;;;20.70;5.25;;;38.40;46.20;;;;;;5093986;28;20502;-58
2021/07/30 11:50:10;;;;;;;12.68;5.60;;;38.30;46.70;;;;;;5092881;28;20511;-59
2021/07/30 11:52:39;;;;;;;10.65;5.18;;;38.20;46.30;;;;;;5094209;28;20165;-58
2021/07/30 11:55:20;;;;;;;10.65;5.10;;;38.20;46.20;;;;;;5093039;28;20032;-58
2021/07/30 11:57:51;;;;;;;15.75;5.78;;;37.90;46.70;;;;;;5093408;28;20401;-59
2021/07/30 12:00:26;;;;;;;18.50;5.60;;;37.80;46.70;;;;;;5069453;28;20490;-59
2021/07/30 12:02:55;;;;;;;9.93;5.13;;;37.70;47.10;;;;;;5093382;28;20204;-58
2021/07/30 12:05:32;;;;;;;12.85;5.13;;;37.60;47.60;;;;;;5059875;28;20482;-58
2021/07/30 12:08:00;;;;;;;14.95;5.55;;;37.70;47.60;;;;;;5092395;28;20047;-58
2021/07/30 12:10:31;;;;;;;10.45;5.57;;;37.70;47.50;;;;;;5093026;28;20051;-58
2021/07/30 12:13:04;;;;;;;17.80;5.93;;;37.80;47.80;;;;;;5093347;28;20040;-57
2021/07/30 12:15:32;;;;;;;8.45;4.57;;;37.90;47.40;;;;;;5093382;28;20059;-58
2021/07/30 12:18:04;;;;;;;9.20;4.57;;;37.70;46.80;;;;;;5093413;28;20048;-58
2021/07/30 12:20:39;;;;;;;14.65;5.95;;;37.70;47.50;;;;;;5092452;28;20085;-58
2021/07/30 12:23:15;;;;;;;7.35;5.22;;;37.50;47.70;;;;;;5092323;28;20072;-58
2021/07/30 12:25:49;;;;;;;9.10;4.88;;;37.50;47.50;;;;;;5063143;28;20060;-58
2021/07/30 12:28:18;;;;;;;11.75;4.85;;;37.50;47.80;;;;;;5082167;28;20443;-59
2021/07/30 12:30:50;;;;;;;14.80;4.90;;;37.50;47.30;;;;;;5092173;28;20119;-58
2021/07/30 12:33:32;;;;;;;12.88;4.80;;;37.50;47.20;;;;;;5092645;28;20390;-57
2021/07/30 12:36:05;;;;;;;11.75;4.47;;;37.40;46.60;;;;;;5092795;28;20047;-58
2021/07/30 12:38:48;;;;;;;12.93;5.60;;;37.40;46.80;;;;;;5092537;28;20575;-58
2021/07/30 12:41:19;;;;;;;8.80;5.13;;;37.40;46.70;;;;;;5093073;28;20071;-58
2021/07/30 12:43:47;;;;;;;9.70;4.65;;;37.40;46.80;;;;;;5093082;28;20077;-58
2021/07/30 12:46:31;;;;;;;16.30;6.30;;;37.40;46.50;;;;;;5093311;28;20052;-58
2021/07/30 12:48:59;;;;;;;11.67;6.83;;;37.40;46.50;;;;;;5078748;28;20040;-57
2021/07/30 12:51:27;;;;;;;9.82;5.13;;;37.40;46.40;;;;;;5092894;28;20056;-58
2021/07/30 12:53:59;;;;;;;9.23;4.75;;;37.50;46.20;;;;;;5058077;28;20110;-58